| time (UTC) | temp F | wind direction | speed knots | gust knots | rain 1hr in | rain 24hr in | rain mn in | humidity % | barometer mb |
| 20260506111509 | 49 | 205 | 0.0 | 0.0 | 0.00 | 0.00 | 0.00 | 91 | 1017.8 |
| 20260506110009 | 49 | 210 | 0.0 | 0.0 | 0.00 | 0.00 | 0.00 | 91 | 1017.7 |
| 20260506104504 | 49 | 210 | 0.0 | 0.0 | 0.00 | 0.00 | 0.00 | 91 | 1017.4 |
| 20260506103008 | 50 | 210 | 0.0 | 0.9 | 0.00 | 0.00 | 0.00 | 90 | 1017.2 |
| 20260506101600 | 50 | 220 | 0.0 | 0.0 | 0.00 | 0.00 | 0.00 | 90 | 1017.1 |
| 20260506100112 | 50 | 203 | 0.0 | 0.9 | 0.00 | 0.00 | 0.00 | 89 | 1016.9 |
| 20260506094602 | 50 | 220 | 0.0 | 1.7 | 0.00 | 0.00 | 0.00 | 89 | 1016.8 |
| 20260506093053 | 51 | 252 | 0.0 | 1.7 | 0.00 | 0.00 | 0.00 | 88 | 1016.7 |
| 20260506091552 | 51 | 202 | 0.0 | 1.7 | 0.00 | 0.00 | 0.00 | 88 | 1016.6 |
| 20260506090051 | 51 | 214 | 0.0 | 2.6 | 0.00 | 0.00 | 0.00 | 88 | 1016.5 |
| 20260506084616 | 51 | 195 | 0.0 | 0.0 | 0.00 | 0.00 | 0.00 | 88 | 1016.5 |
| 20260506083046 | 51 | 194 | 0.0 | 0.0 | 0.00 | 0.00 | 0.00 | 88 | 1016.5 |
| 20260506081553 | 52 | 194 | 0.0 | 0.0 | 0.00 | 0.00 | 0.00 | 87 | 1016.5 |
| 20260506073037 | 53 | 267 | 0.0 | 0.0 | 0.00 | 0.00 | 0.00 | 86 | 1016.3 |
| 20260506071535 | 53 | 272 | 0.0 | 0.0 | 0.00 | 0.00 | 0.00 | 85 | 1016.2 |
| 20260506061531 | 54 | 237 | 0.0 | 0.9 | 0.00 | 0.00 | 0.00 | 84 | 1015.7 |
| 20260506044535 | 57 | 175 | 0.0 | 3.5 | 0.00 | 0.00 | 0.00 | 77 | 1015.2 |
| 20260506043027 | 58 | 221 | 0.0 | 2.6 | 0.00 | 0.00 | 0.00 | 77 | 1015.0 |
| 20260506041528 | 58 | 197 | 0.9 | 5.2 | 0.00 | 0.00 | 0.00 | 76 | 1014.8 |
| 20260506040032 | 59 | 150 | 0.0 | 5.2 | 0.00 | 0.00 | 0.00 | 76 | 1014.7 |
| 20260506034526 | 59 | 231 | 0.9 | 7.0 | 0.00 | 0.00 | 0.00 | 74 | 1014.5 |
| 20260506033025 | 60 | 202 | 0.0 | 5.2 | 0.00 | 0.00 | 0.00 | 73 | 1014.4 |
| 20260506031527 | 61 | 224 | 0.9 | 7.8 | 0.00 | 0.00 | 0.00 | 72 | 1014.3 |
| 20260506030027 | 62 | 223 | 1.7 | 6.1 | 0.00 | 0.00 | 0.00 | 70 | 1014.2 |
| 20260506024523 | 64 | 171 | 0.9 | 7.0 | 0.00 | 0.00 | 0.00 | 68 | 1014.1 |
| 20260506023038 | 66 | 207 | 1.7 | 6.1 | 0.00 | 0.00 | 0.00 | 67 | 1014.2 |
| 20260506021533 | 66 | 176 | 0.9 | 6.1 | 0.00 | 0.00 | 0.00 | 66 | 1014.3 |
| 20260506020026 | 66 | 211 | 0.9 | 6.1 | 0.00 | 0.00 | 0.00 | 66 | 1014.2 |
| 20260506014521 | 66 | 198 | 1.7 | 10.4 | 0.00 | 0.00 | 0.00 | 66 | 1014.3 |
| 20260506013029 | 67 | 228 | 0.9 | 7.0 | 0.00 | 0.00 | 0.00 | 65 | 1014.4 |
| 20260506011520 | 68 | 149 | 0.9 | 6.1 | 0.00 | 0.00 | 0.00 | 64 | 1014.4 |
| 20260506010019 | 69 | 214 | 0.9 | 6.1 | 0.00 | 0.00 | 0.00 | 63 | 1014.5 |
| 20260506004525 | 69 | 172 | 0.9 | 5.2 | 0.00 | 0.00 | 0.00 | 62 | 1014.5 |
| 20260506003018 | 69 | 157 | 0.9 | 7.8 | 0.00 | 0.00 | 0.00 | 61 | 1014.7 |
| 20260506001516 | 69 | 208 | 0.9 | 7.0 | 0.00 | 0.00 | 0.00 | 63 | 1014.8 |
| 20260506000015 | 68 | 96 | 2.6 | 12.2 | 0.00 | 0.00 | 0.00 | 62 | 1015.1 |
| 20260505234516 | 68 | 177 | 3.5 | 9.6 | 0.00 | 0.00 | 0.00 | 63 | 1015.1 |
| 20260505233012 | 68 | 120 | 0.9 | 7.8 | 0.00 | 0.00 | 0.00 | 66 | 1015.3 |
| 20260505231527 | 67 | 219 | 0.9 | 6.1 | 0.00 | 0.00 | 0.00 | 65 | 1015.5 |
| 20260505230021 | 67 | 232 | 2.6 | 7.8 | 0.00 | 0.00 | 0.00 | 65 | 1015.8 |
| 20260505224513 | 67 | 178 | 1.7 | 7.0 | 0.00 | 0.00 | 0.00 | 66 | 1015.8 |
| 20260505223008 | 67 | 110 | 0.9 | 7.8 | 0.00 | 0.00 | 0.00 | 67 | 1016.0 |
| 20260505221508 | 67 | 205 | 2.6 | 9.6 | 0.00 | 0.00 | 0.00 | 66 | 1016.2 |
| 20260505220005 | 66 | 200 | 0.0 | 7.0 | 0.00 | 0.00 | 0.00 | 68 | 1016.2 |
| 20260505214503 | 65 | 158 | 3.5 | 7.0 | 0.00 | 0.00 | 0.00 | 69 | 1016.2 |
| 20260505213002 | 64 | 141 | 2.6 | 7.8 | 0.00 | 0.00 | 0.00 | 70 | 1016.4 |
| 20260505211559 | 63 | 189 | 0.0 | 7.0 | 0.00 | 0.00 | 0.00 | 73 | 1016.5 |
| 20260505210058 | 62 | 136 | 1.7 | 7.8 | 0.00 | 0.00 | 0.00 | 73 | 1016.6 |
| 20260505204554 | 62 | 103 | 2.6 | 7.0 | 0.00 | 0.00 | 0.00 | 74 | 1016.7 |
| 20260505203114 | 62 | 212 | 1.7 | 7.8 | 0.00 | 0.00 | 0.00 | 74 | 1016.6 |
| 20260505201559 | 60 | 159 | 1.7 | 7.0 | 0.00 | 0.00 | 0.00 | 77 | 1016.8 |
| 20260505200054 | 60 | 162 | 1.7 | 9.6 | 0.00 | 0.00 | 0.00 | 78 | 1016.7 |
| 20260505194549 | 60 | 137 | 1.7 | 8.7 | 0.00 | 0.00 | 0.00 | 77 | 1016.7 |
| 20260505193046 | 60 | 138 | 3.5 | 7.8 | 0.00 | 0.00 | 0.00 | 76 | 1016.7 |
| 20260505191554 | 59 | 159 | 2.6 | 9.6 | 0.00 | 0.00 | 0.00 | 77 | 1016.8 |
| 20260505190046 | 60 | 205 | 2.6 | 7.0 | 0.00 | 0.00 | 0.00 | 76 | 1016.7 |
| 20260505184543 | 60 | 192 | 2.6 | 9.6 | 0.00 | 0.00 | 0.00 | 78 | 1016.6 |
| 20260505183043 | 59 | 102 | 0.9 | 9.6 | 0.00 | 0.00 | 0.00 | 78 | 1016.3 |
| 20260505181544 | 58 | 139 | 2.6 | 13.0 | 0.00 | 0.00 | 0.00 | 79 | 1016.5 |
| 20260505180040 | 59 | 105 | 0.9 | 7.8 | 0.00 | 0.00 | 0.00 | 79 | 1016.5 |
| 20260505174542 | 58 | 148 | 1.7 | 8.7 | 0.00 | 0.00 | 0.00 | 78 | 1016.5 |
| 20260505173040 | 58 | 112 | 0.9 | 8.7 | 0.00 | 0.00 | 0.00 | 79 | 1016.5 |
| 20260505171540 | 58 | 137 | 1.7 | 7.0 | 0.00 | 0.00 | 0.00 | 79 | 1016.3 |
| 20260505170048 | 57 | 209 | 2.6 | 9.6 | 0.00 | 0.00 | 0.00 | 80 | 1016.3 |
| 20260505164536 | 58 | 143 | 0.0 | 8.7 | 0.00 | 0.00 | 0.00 | 79 | 1016.3 |
| 20260505163035 | 58 | 139 | 0.9 | 6.1 | 0.00 | 0.00 | 0.00 | 78 | 1016.1 |
| 20260505161532 | 57 | 201 | 0.9 | 7.0 | 0.00 | 0.00 | 0.00 | 79 | 1016.1 |
| 20260505153027 | 56 | 176 | 0.9 | 6.1 | 0.00 | 0.00 | 0.00 | 81 | 1015.6 |
| 20260505151525 | 56 | 160 | 0.9 | 5.2 | 0.00 | 0.00 | 0.00 | 82 | 1015.4 |
| 20260505124508 | 52 | 201 | 0.0 | 3.5 | 0.00 | 0.00 | 0.00 | 87 | 1013.9 |
| 20260505123004 | 52 | 200 | 0.0 | 2.6 | 0.00 | 0.00 | 0.00 | 88 | 1013.8 |
| 20260505121507 | 51 | 213 | 0.0 | 2.6 | 0.00 | 0.00 | 0.00 | 88 | 1013.7 |
| 20260505120100 | 51 | 217 | 0.0 | 0.9 | 0.00 | 0.00 | 0.00 | 89 | 1013.5 |
| 20260505114559 | 51 | 192 | 0.0 | 0.9 | 0.00 | 0.00 | 0.00 | 89 | 1013.3 |
| 20260505113056 | 51 | 196 | 0.0 | 0.0 | 0.00 | 0.00 | 0.00 | 88 | 1013.2 |